createdAt,value
2023-03-11T00:00:26.325Z,19.72
2023-03-11T00:02:55.769Z,19.73
2023-03-11T00:05:31.101Z,19.73
2023-03-11T00:07:58.893Z,19.72
2023-03-11T00:10:35.164Z,19.73
2023-03-11T00:13:03.648Z,19.73
2023-03-11T00:15:30.979Z,19.74
2023-03-11T00:17:58.534Z,19.75
2023-03-11T00:20:29.657Z,19.74
2023-03-11T00:22:57.707Z,19.75
2023-03-11T00:25:26.628Z,19.75
2023-03-11T00:27:53.756Z,19.75
2023-03-11T00:30:22.201Z,19.75
2023-03-11T00:32:50.840Z,19.75
2023-03-11T00:35:20.689Z,19.75
2023-03-11T00:37:49.264Z,19.75
2023-03-11T00:40:19.363Z,19.75
2023-03-11T00:42:47.136Z,19.75
2023-03-11T00:45:15.093Z,19.75
2023-03-11T00:47:42.960Z,19.74
2023-03-11T00:50:16.026Z,19.73
2023-03-11T00:52:43.479Z,19.70
2023-03-11T00:55:13.519Z,19.69
2023-03-11T00:57:42.686Z,19.69
2023-03-11T01:00:14.802Z,19.69
2023-03-11T01:02:42.172Z,19.68
2023-03-11T01:05:10.506Z,19.69
2023-03-11T01:07:37.638Z,19.70
2023-03-11T01:10:06.921Z,19.71
2023-03-11T01:12:34.210Z,19.72
2023-03-11T01:15:02.605Z,19.73
2023-03-11T01:17:29.583Z,19.73
2023-03-11T01:19:57.720Z,19.73
2023-03-11T01:22:25.070Z,19.73
2023-03-11T01:24:52.128Z,19.75
2023-03-11T01:27:19.142Z,19.75
2023-03-11T01:29:46.192Z,19.75
2023-03-11T01:32:13.419Z,19.75
2023-03-11T01:34:40.506Z,19.74
2023-03-11T01:37:07.507Z,19.74
2023-03-11T01:39:34.545Z,19.74
2023-03-11T01:42:01.577Z,19.74
2023-03-11T01:44:29.265Z,19.74
2023-03-11T01:46:58.680Z,19.74
2023-03-11T01:49:29.964Z,19.74
2023-03-11T01:52:08.296Z,19.75
2023-03-11T01:54:42.151Z,19.75
2023-03-11T01:57:13.302Z,19.75
2023-03-11T01:59:49.086Z,19.75
2023-03-11T02:02:34.504Z,19.76
2023-03-11T02:05:02.745Z,19.76
2023-03-11T02:07:30.240Z,19.76
2023-03-11T02:09:57.796Z,19.77
2023-03-11T02:12:25.613Z,19.77
2023-03-11T02:14:54.798Z,19.77
2023-03-11T02:17:22.566Z,19.77
2023-03-11T02:20:01.838Z,19.78
2023-03-11T02:22:33.686Z,19.78
2023-03-11T02:25:23.374Z,19.78
2023-03-11T02:27:53.601Z,19.78
2023-03-11T02:30:24.323Z,19.77
2023-03-11T02:32:51.541Z,19.77
2023-03-11T02:35:18.959Z,19.77
2023-03-11T02:37:48.213Z,19.77
2023-03-11T02:40:24.151Z,19.77
2023-03-11T02:43:00.610Z,19.77
2023-03-11T02:45:32.003Z,19.77
2023-03-11T02:48:01.141Z,19.77
2023-03-11T02:50:31.505Z,19.76
2023-03-11T02:52:58.699Z,19.77
2023-03-11T02:55:25.647Z,19.77
2023-03-11T02:57:52.639Z,19.76
2023-03-11T03:00:20.687Z,19.76
2023-03-11T03:02:53.537Z,19.77
2023-03-11T03:05:22.067Z,19.77
2023-03-11T03:07:50.540Z,19.77
2023-03-11T03:10:19.276Z,19.77
2023-03-11T03:12:46.329Z,19.76
2023-03-11T03:15:16.103Z,19.77
2023-03-11T03:17:43.965Z,19.77
2023-03-11T03:20:12.164Z,19.77
2023-03-11T03:22:42.552Z,19.77
2023-03-11T03:25:11.107Z,19.77
2023-03-11T03:27:38.569Z,19.76
2023-03-11T03:30:07.568Z,19.77
2023-03-11T03:32:35.487Z,19.76
2023-03-11T03:35:03.717Z,19.76
2023-03-11T03:37:48.920Z,19.76
2023-03-11T03:40:16.485Z,19.77
2023-03-11T03:42:43.620Z,19.77
2023-03-11T03:45:11.353Z,19.76
2023-03-11T03:47:39.132Z,19.76
2023-03-11T03:50:09.319Z,19.76
2023-03-11T03:52:37.940Z,19.76
2023-03-11T03:55:06.727Z,19.76
2023-03-11T03:57:33.793Z,19.76
2023-03-11T04:00:00.741Z,19.76
2023-03-11T04:02:27.925Z,19.75
2023-03-11T04:04:56.194Z,19.73
2023-03-11T04:07:23.224Z,19.73
2023-03-11T04:09:50.142Z,19.73
2023-03-11T04:12:20.341Z,19.73
2023-03-11T04:14:47.323Z,19.72
2023-03-11T04:17:15.073Z,19.73
2023-03-11T04:19:42.149Z,19.74
2023-03-11T04:22:11.262Z,19.74
2023-03-11T04:24:38.963Z,19.74
2023-03-11T04:27:06.106Z,19.74
2023-03-11T04:29:33.483Z,19.74
2023-03-11T04:32:00.444Z,19.74
2023-03-11T04:34:27.473Z,19.75
2023-03-11T04:36:55.700Z,19.75
2023-03-11T04:39:27.339Z,19.75
2023-03-11T04:41:54.667Z,19.75
2023-03-11T04:44:22.885Z,19.75
2023-03-11T04:46:50.138Z,19.75
2023-03-11T04:49:17.211Z,19.75
2023-03-11T04:51:44.557Z,19.75
2023-03-11T04:54:12.026Z,19.76
2023-03-11T04:56:39.363Z,19.76
2023-03-11T04:59:06.742Z,19.76
2023-03-11T05:01:34.869Z,19.76
2023-03-11T05:04:03.724Z,19.76
2023-03-11T05:06:30.694Z,19.77
2023-03-11T05:08:59.182Z,19.77
2023-03-11T05:11:26.513Z,19.77
2023-03-11T05:13:53.471Z,19.76
2023-03-11T05:16:21.115Z,19.77
2023-03-11T05:18:48.272Z,19.77
2023-03-11T05:21:15.771Z,19.78
2023-03-11T05:23:43.490Z,19.78
2023-03-11T05:26:10.891Z,19.77
2023-03-11T05:28:39.324Z,19.77
2023-03-11T05:31:10.742Z,19.77
2023-03-11T05:33:38.630Z,19.77
2023-03-11T05:36:08.762Z,19.77
2023-03-11T05:38:37.062Z,19.77
2023-03-11T05:41:04.434Z,19.78
2023-03-11T05:43:31.603Z,19.77
2023-03-11T05:45:59.437Z,19.76
2023-03-11T05:48:26.641Z,19.77
2023-03-11T05:50:53.807Z,19.76
2023-03-11T05:53:20.961Z,19.75
2023-03-11T05:55:56.706Z,19.73
2023-03-11T05:58:24.290Z,19.71
2023-03-11T06:00:51.515Z,19.69
2023-03-11T06:03:19.180Z,19.67
2023-03-11T06:05:47.984Z,19.65
2023-03-11T06:08:15.841Z,19.64
2023-03-11T06:10:43.586Z,19.63
2023-03-11T06:13:11.359Z,19.64
2023-03-11T06:15:47.109Z,19.65
2023-03-11T06:18:14.130Z,19.66
2023-03-11T06:20:41.149Z,19.67
2023-03-11T06:23:08.102Z,19.68
2023-03-11T06:25:35.166Z,19.69
2023-03-11T06:28:02.558Z,19.70
2023-03-11T06:30:30.554Z,19.71
2023-03-11T06:33:04.510Z,19.72
2023-03-11T06:35:31.640Z,19.72
2023-03-11T06:37:59.234Z,19.73
2023-03-11T06:40:26.429Z,19.74
2023-03-11T06:42:53.641Z,19.74
2023-03-11T06:45:21.613Z,19.75
2023-03-11T06:47:48.744Z,19.76
2023-03-11T06:50:16.036Z,19.76
2023-03-11T06:52:43.287Z,19.77
2023-03-11T06:55:10.382Z,19.77
2023-03-11T06:57:37.583Z,19.78
2023-03-11T07:00:08.033Z,19.79
2023-03-11T07:02:35.672Z,19.79
2023-03-11T07:05:02.690Z,19.80
2023-03-11T07:07:30.483Z,19.80
2023-03-11T07:10:00.186Z,19.81
2023-03-11T07:12:27.529Z,19.81
2023-03-11T07:14:59.393Z,19.81
2023-03-11T07:17:28.034Z,19.79
2023-03-11T07:19:55.225Z,19.78
2023-03-11T07:22:22.309Z,19.78
2023-03-11T07:24:49.587Z,19.76
2023-03-11T07:27:17.720Z,19.77
2023-03-11T07:29:45.065Z,19.78
2023-03-11T07:32:12.050Z,19.78
2023-03-11T07:34:39.117Z,19.78
2023-03-11T07:37:06.050Z,19.78
2023-03-11T07:39:32.976Z,19.78
2023-03-11T07:41:59.837Z,19.80
2023-03-11T07:44:34.115Z,19.81
2023-03-11T07:47:05.561Z,19.81
2023-03-11T07:49:33.297Z,19.83
2023-03-11T07:52:00.292Z,19.84
2023-03-11T07:54:27.316Z,19.84
2023-03-11T07:56:54.615Z,19.85
2023-03-11T07:59:21.527Z,19.85
2023-03-11T08:01:48.419Z,19.86
2023-03-11T08:04:17.235Z,19.86
2023-03-11T08:06:46.896Z,19.86
2023-03-11T08:09:14.103Z,19.86
2023-03-11T08:11:41.897Z,19.87
2023-03-11T08:14:10.167Z,19.86
2023-03-11T08:16:39.806Z,19.87
2023-03-11T08:19:06.754Z,19.87
2023-03-11T08:21:33.687Z,19.88
2023-03-11T08:24:02.612Z,19.88
2023-03-11T08:26:33.320Z,19.88
2023-03-11T08:29:00.264Z,19.89
2023-03-11T08:31:30.110Z,19.90
2023-03-11T08:34:02.151Z,19.91
2023-03-11T08:36:30.147Z,19.92
2023-03-11T08:38:57.677Z,19.92
2023-03-11T08:41:25.382Z,19.91
2023-03-11T08:43:52.471Z,19.92
2023-03-11T08:46:51.778Z,19.92
2023-03-11T08:49:18.761Z,19.91
2023-03-11T08:51:46.335Z,19.92
2023-03-11T08:54:13.724Z,19.91
2023-03-11T08:56:41.340Z,19.90
2023-03-11T08:59:08.908Z,19.90
2023-03-11T09:01:36.690Z,19.88
2023-03-11T09:04:04.749Z,19.86
2023-03-11T09:06:32.305Z,19.84
2023-03-11T09:08:59.265Z,19.82
2023-03-11T09:11:26.575Z,19.80
2023-03-11T09:13:54.800Z,19.80
2023-03-11T09:16:23.521Z,19.81
2023-03-11T09:18:50.539Z,19.81
2023-03-11T09:21:17.847Z,19.81
2023-03-11T09:23:45.108Z,19.83
2023-03-11T09:26:13.721Z,19.83
2023-03-11T09:28:42.241Z,19.84
2023-03-11T09:31:09.825Z,19.84
2023-03-11T09:33:38.719Z,19.85
2023-03-11T09:36:10.119Z,19.86
2023-03-11T09:38:37.056Z,19.87
2023-03-11T09:41:29.305Z,19.88
2023-03-11T09:44:22.526Z,19.89
2023-03-11T09:47:27.091Z,19.89
2023-03-11T09:50:07.720Z,19.89
2023-03-11T09:53:04.408Z,19.88
2023-03-11T09:55:34.902Z,19.87
2023-03-11T09:58:09.768Z,19.86
2023-03-11T10:00:36.907Z,19.85
2023-03-11T10:03:13.350Z,19.87
2023-03-11T10:05:42.806Z,19.88
2023-03-11T10:08:25.780Z,19.90
2023-03-11T10:11:06.267Z,19.92
2023-03-11T10:14:05.672Z,19.92
2023-03-11T10:16:45.825Z,19.93
2023-03-11T10:19:49.519Z,19.94
2023-03-11T10:22:35.931Z,19.97
2023-03-11T10:25:19.583Z,19.98
2023-03-11T10:27:52.078Z,19.98
2023-03-11T10:30:41.401Z,19.99
2023-03-11T10:33:21.629Z,20.00
2023-03-11T10:35:53.648Z,20.01
2023-03-11T10:38:33.561Z,20.02
2023-03-11T10:41:06.905Z,20.02
2023-03-11T10:43:37.356Z,20.03
2023-03-11T10:46:11.246Z,20.03
2023-03-11T10:48:38.423Z,20.03
2023-03-11T10:51:22.774Z,20.04
2023-03-11T10:53:54.502Z,20.04
2023-03-11T10:56:39.453Z,20.04
2023-03-11T10:59:24.984Z,20.04
2023-03-11T11:02:00.667Z,20.05
2023-03-11T11:04:33.384Z,20.06
2023-03-11T11:07:41.322Z,20.05
2023-03-11T11:10:27.815Z,20.05
2023-03-11T11:13:01.065Z,20.05
2023-03-11T11:15:37.246Z,20.05
2023-03-11T11:18:18.494Z,20.05
2023-03-11T11:20:57.373Z,20.04
2023-03-11T11:23:43.720Z,20.05
2023-03-11T11:26:24.453Z,20.05
2023-03-11T11:29:09.804Z,20.05
2023-03-11T11:31:39.218Z,20.05
2023-03-11T11:34:29.864Z,20.06
2023-03-11T11:36:58.798Z,20.06
2023-03-11T11:39:29.294Z,20.06
2023-03-11T11:41:57.272Z,20.06
2023-03-11T11:44:36.597Z,20.07
2023-03-11T11:47:37.001Z,20.07
2023-03-11T11:50:14.228Z,20.06
2023-03-11T11:52:47.860Z,20.06
2023-03-11T11:55:23.305Z,20.06
2023-03-11T11:57:51.669Z,20.06
2023-03-11T12:00:26.062Z,20.06
2023-03-11T12:02:52.917Z,20.07
2023-03-11T12:06:03.112Z,20.07
2023-03-11T12:08:46.277Z,20.08
2023-03-11T12:11:30.625Z,20.08
2023-03-11T12:14:10.766Z,20.08
2023-03-11T12:16:47.868Z,20.09
2023-03-11T12:19:44.575Z,20.09
2023-03-11T12:22:21.147Z,20.10
2023-03-11T12:25:22.597Z,20.10
2023-03-11T12:28:15.443Z,20.10
2023-03-11T12:30:46.581Z,20.09
2023-03-11T12:33:32.329Z,20.10
2023-03-11T12:36:01.492Z,20.10
2023-03-11T12:38:33.445Z,20.10
2023-03-11T12:41:14.361Z,20.10
2023-03-11T12:43:41.776Z,20.10
2023-03-11T12:46:11.126Z,20.10
2023-03-11T12:48:50.615Z,20.11
2023-03-11T12:51:26.678Z,20.10
2023-03-11T12:53:56.154Z,20.10
2023-03-11T12:56:40.935Z,20.10
2023-03-11T12:59:26.148Z,20.11
2023-03-11T13:02:21.357Z,20.11
2023-03-11T13:05:10.369Z,20.11
2023-03-11T13:07:51.521Z,20.11
2023-03-11T13:10:18.748Z,20.11
2023-03-11T13:12:49.484Z,20.11
2023-03-11T13:15:20.342Z,20.12
2023-03-11T13:18:03.297Z,20.11
2023-03-11T13:20:39.674Z,20.11
2023-03-11T13:23:09.830Z,20.12
2023-03-11T13:25:50.023Z,20.12
2023-03-11T13:28:42.208Z,20.12
2023-03-11T13:31:31.078Z,20.12
2023-03-11T13:34:07.318Z,20.11
2023-03-11T13:36:57.001Z,20.12
2023-03-11T13:39:33.170Z,20.11
2023-03-11T13:42:00.773Z,20.12
2023-03-11T13:44:38.346Z,20.12
2023-03-11T13:47:14.933Z,20.12
2023-03-11T13:49:54.626Z,20.12
2023-03-11T13:52:28.057Z,20.12
2023-03-11T13:54:58.202Z,20.12
2023-03-11T13:57:29.704Z,20.12
2023-03-11T13:59:58.312Z,20.13
2023-03-11T14:02:27.913Z,20.13
2023-03-11T14:04:59.047Z,20.13
2023-03-11T14:07:32.339Z,20.14
2023-03-11T14:10:21.097Z,20.14
2023-03-11T14:12:48.574Z,20.14
2023-03-11T14:15:27.281Z,20.14
2023-03-11T14:17:55.568Z,20.13
2023-03-11T14:20:29.196Z,20.13
2023-03-11T14:22:57.147Z,20.14
2023-03-11T14:25:31.352Z,20.14
2023-03-11T14:28:02.405Z,20.14
2023-03-11T14:30:32.639Z,20.14
2023-03-11T14:33:20.794Z,20.14
2023-03-11T14:36:07.352Z,20.14
2023-03-11T14:38:34.390Z,20.14
2023-03-11T14:41:04.705Z,20.14
2023-03-11T14:43:41.830Z,20.14
2023-03-11T14:46:09.894Z,20.14
2023-03-11T14:48:40.489Z,20.14
2023-03-11T14:51:17.986Z,20.14
2023-03-11T14:53:51.317Z,20.14
2023-03-11T14:56:24.045Z,20.14
2023-03-11T14:59:08.410Z,20.14
2023-03-11T15:01:42.440Z,20.14
2023-03-11T15:04:13.436Z,20.14
2023-03-11T15:06:44.164Z,20.14
2023-03-11T15:09:21.075Z,20.14
2023-03-11T15:11:52.300Z,20.14
2023-03-11T15:14:28.083Z,20.14
2023-03-11T15:16:57.120Z,20.14
2023-03-11T15:19:32.357Z,20.14
2023-03-11T15:22:25.532Z,20.13
2023-03-11T15:24:59.009Z,20.13
2023-03-11T15:27:35.233Z,20.14
2023-03-11T15:30:05.205Z,20.13
2023-03-11T15:32:32.185Z,20.13
2023-03-11T15:35:08.469Z,20.13
2023-03-11T15:37:35.561Z,20.14
2023-03-11T15:40:44.873Z,20.13
2023-03-11T15:43:15.413Z,20.12
2023-03-11T15:45:43.595Z,20.13
2023-03-11T15:48:11.702Z,20.12
2023-03-11T15:50:53.323Z,20.12
2023-03-11T15:53:22.678Z,20.13
2023-03-11T15:55:49.782Z,20.13
2023-03-11T15:58:20.103Z,20.13
2023-03-11T16:00:56.763Z,20.12
2023-03-11T16:03:24.645Z,20.12
2023-03-11T16:05:51.779Z,20.12
2023-03-11T16:08:18.754Z,20.13
2023-03-11T16:10:45.856Z,20.12
2023-03-11T16:13:14.861Z,20.12
2023-03-11T16:15:42.937Z,20.12
2023-03-11T16:18:10.463Z,20.12
2023-03-11T16:20:50.738Z,20.11
2023-03-11T16:23:34.001Z,20.11
2023-03-11T16:26:06.553Z,20.12
2023-03-11T16:28:33.600Z,20.12
2023-03-11T16:31:00.767Z,20.11
2023-03-11T16:33:27.942Z,20.12
2023-03-11T16:35:54.919Z,20.11
2023-03-11T16:38:23.566Z,20.12
2023-03-11T16:41:00.086Z,20.12
2023-03-11T16:43:30.049Z,20.12
2023-03-11T16:45:57.457Z,20.12
2023-03-11T16:48:25.135Z,20.11
2023-03-11T16:50:52.242Z,20.11
2023-03-11T16:53:19.651Z,20.11
2023-03-11T16:55:47.134Z,20.10
2023-03-11T16:58:15.050Z,20.10
2023-03-11T17:00:42.858Z,20.10
2023-03-11T17:03:21.387Z,20.10
2023-03-11T17:05:49.084Z,20.10
2023-03-11T17:08:18.450Z,20.10
2023-03-11T17:10:47.074Z,20.09
2023-03-11T17:13:17.755Z,20.09
2023-03-11T17:15:47.290Z,20.09
2023-03-11T17:18:14.318Z,20.09
2023-03-11T17:20:43.720Z,20.10
2023-03-11T17:23:10.919Z,20.09
2023-03-11T17:25:41.800Z,20.09
2023-03-11T17:28:09.452Z,20.10
2023-03-11T17:30:37.625Z,20.10
2023-03-11T17:33:05.162Z,20.10
2023-03-11T17:35:33.738Z,20.10
2023-03-11T17:38:01.003Z,20.09
2023-03-11T17:40:29.498Z,20.09
2023-03-11T17:42:56.520Z,20.10
2023-03-11T17:45:23.593Z,20.09
2023-03-11T17:47:50.665Z,20.09
2023-03-11T17:50:18.014Z,20.09
2023-03-11T17:52:47.885Z,20.08
2023-03-11T17:55:15.118Z,20.08
2023-03-11T17:57:45.532Z,20.07
2023-03-11T18:00:15.113Z,20.07
2023-03-11T18:02:42.419Z,20.07
2023-03-11T18:05:09.607Z,20.07
2023-03-11T18:07:41.317Z,20.07
2023-03-11T18:10:09.424Z,20.07
2023-03-11T18:12:36.636Z,20.07
2023-03-11T18:15:07.497Z,20.07
2023-03-11T18:17:37.180Z,20.07
2023-03-11T18:20:05.172Z,20.08
2023-03-11T18:22:34.112Z,20.07
2023-03-11T18:25:02.120Z,20.08
2023-03-11T18:27:29.075Z,20.08
2023-03-11T18:29:56.050Z,20.08
2023-03-11T18:32:24.891Z,20.09
2023-03-11T18:34:51.903Z,20.09
2023-03-11T18:37:19.072Z,20.08
2023-03-11T18:39:45.980Z,20.08
2023-03-11T18:42:14.291Z,20.08
2023-03-11T18:44:41.972Z,20.08
2023-03-11T18:47:09.091Z,20.08
2023-03-11T18:49:36.380Z,20.08
2023-03-11T18:52:03.523Z,20.09
2023-03-11T18:54:32.539Z,20.09
2023-03-11T18:56:59.570Z,20.09
2023-03-11T18:59:28.148Z,20.08
2023-03-11T19:02:52.207Z,20.09
2023-03-11T19:05:20.045Z,20.08
2023-03-11T19:07:47.069Z,20.09
2023-03-11T19:10:15.607Z,20.09
2023-03-11T19:12:44.677Z,20.09
2023-03-11T19:15:11.857Z,20.09
2023-03-11T19:17:38.841Z,20.10
2023-03-11T19:20:08.921Z,20.10
2023-03-11T19:22:37.068Z,20.10
2023-03-11T19:25:05.440Z,20.10
2023-03-11T19:27:32.700Z,20.11
2023-03-11T19:29:59.621Z,20.10
2023-03-11T19:32:26.696Z,20.11
2023-03-11T19:34:53.687Z,20.10
2023-03-11T19:37:20.724Z,20.11
2023-03-11T19:39:47.635Z,20.11
2023-03-11T19:42:14.752Z,20.11
2023-03-11T19:44:41.739Z,20.11
2023-03-11T19:47:08.842Z,20.11
2023-03-11T19:49:35.802Z,20.11
2023-03-11T19:52:02.789Z,20.11
2023-03-11T19:54:29.734Z,20.12
2023-03-11T19:56:56.727Z,20.12
2023-03-11T19:59:23.647Z,20.12
2023-03-11T20:01:50.608Z,20.11
2023-03-11T20:04:18.039Z,20.11
2023-03-11T20:06:45.509Z,20.11
2023-03-11T20:09:13.605Z,20.11
2023-03-11T20:11:40.889Z,20.11
2023-03-11T20:14:13.268Z,20.12
2023-03-11T20:16:40.540Z,20.12
2023-03-11T20:19:08.139Z,20.12
2023-03-11T20:21:39.471Z,20.12
2023-03-11T20:24:07.489Z,20.12
2023-03-11T20:26:34.472Z,20.12
2023-03-11T20:29:01.416Z,20.12
2023-03-11T20:31:29.037Z,20.12
2023-03-11T20:33:57.256Z,20.12
2023-03-11T20:36:28.573Z,20.11
2023-03-11T20:38:56.124Z,20.10
2023-03-11T20:41:25.384Z,20.09
2023-03-11T20:43:53.780Z,20.09
2023-03-11T20:46:20.919Z,20.08
2023-03-11T20:48:48.409Z,20.08
2023-03-11T20:51:20.617Z,20.08
2023-03-11T20:53:49.606Z,20.08
2023-03-11T20:56:20.226Z,20.08
2023-03-11T20:58:51.237Z,20.08
2023-03-11T21:01:24.939Z,20.07
2023-03-11T21:03:54.460Z,20.06
2023-03-11T21:06:31.664Z,20.04
2023-03-11T21:09:00.642Z,20.04
2023-03-11T21:11:28.140Z,20.02
2023-03-11T21:13:55.800Z,20.02
2023-03-11T21:16:23.485Z,20.01
2023-03-11T21:18:50.572Z,20.02
2023-03-11T21:21:18.563Z,20.03
2023-03-11T21:23:48.239Z,20.03
2023-03-11T21:26:17.538Z,20.05
2023-03-11T21:28:47.091Z,20.05
2023-03-11T21:31:20.605Z,20.07
2023-03-11T21:33:49.280Z,20.06
2023-03-11T21:36:17.483Z,20.05
2023-03-11T21:38:46.273Z,20.03
2023-03-11T21:41:21.064Z,20.00
2023-03-11T21:43:52.426Z,19.97
2023-03-11T21:46:22.503Z,19.95
2023-03-11T21:48:50.464Z,19.94
2023-03-11T21:51:21.905Z,19.93
2023-03-11T21:53:49.000Z,19.93
2023-03-11T21:56:16.836Z,19.93
2023-03-11T21:58:45.061Z,19.93
2023-03-11T22:01:13.461Z,19.94
2023-03-11T22:03:41.398Z,19.94
2023-03-11T22:06:12.195Z,19.93
2023-03-11T22:08:40.628Z,19.91
2023-03-11T22:13:54.234Z,19.87
2023-03-11T22:16:22.494Z,19.85
2023-03-11T22:18:49.876Z,19.84
2023-03-11T22:21:18.315Z,19.82
2023-03-11T22:23:45.762Z,19.82
2023-03-11T22:26:14.123Z,19.82
2023-03-11T22:28:41.060Z,19.82
2023-03-11T22:31:10.107Z,19.83
2023-03-11T22:33:38.135Z,19.84
2023-03-11T22:36:06.015Z,19.85
2023-03-11T22:38:34.414Z,19.85
2023-03-11T22:41:08.068Z,19.86
2023-03-11T22:43:35.702Z,19.86
2023-03-11T22:46:03.941Z,19.86
2023-03-11T22:48:32.167Z,19.87
2023-03-11T22:50:59.293Z,19.87
2023-03-11T22:53:26.357Z,19.87
2023-03-11T22:55:54.091Z,19.88
2023-03-11T22:58:21.206Z,19.88
2023-03-11T23:00:48.524Z,19.88
2023-03-11T23:03:15.665Z,19.89
2023-03-11T23:05:42.821Z,19.88
2023-03-11T23:08:12.204Z,19.89
2023-03-11T23:10:45.444Z,19.89
2023-03-11T23:13:13.109Z,19.89
2023-03-11T23:15:42.440Z,19.89
2023-03-11T23:18:10.288Z,19.89
2023-03-11T23:20:39.190Z,19.89
2023-03-11T23:23:06.749Z,19.89
2023-03-11T23:25:35.547Z,19.89
2023-03-11T23:28:04.769Z,19.90
2023-03-11T23:30:32.131Z,19.94
2023-03-11T23:32:59.574Z,19.97
2023-03-11T23:35:26.721Z,19.98
2023-03-11T23:37:53.740Z,19.99
2023-03-11T23:40:20.792Z,20.01
2023-03-11T23:42:48.417Z,20.02
2023-03-11T23:45:15.377Z,20.02
2023-03-11T23:47:42.598Z,20.02
2023-03-11T23:50:10.073Z,20.02
2023-03-11T23:52:37.212Z,20.01
2023-03-11T23:55:05.735Z,20.01
2023-03-11T23:57:38.108Z,20.00
